KNIP/NIP METAR and TAF weather

Enter ICAO airport designator
Station Type Date Time Source
KNIP METAR 2022/01/26 08:53 UTC NOAA

KNIP 260853Z 35005KT 10SM OVC035 11/09 A3007 RMK AO2 SLP177 T01060094 56004


Station Type Date Time Source
KNIP Decoded METAR 2022/01/26 08:53 UTC NOAA

JACKSONVILLE NAVAL AIR STN, FL, United States (KNIP) 30-14N 81-40W 8M
Jan 26, 2022 - 03:53 AM EST / 2022.01.26 0853 UTC
Wind: from the N (350 degrees) at 6 MPH (5 KT):0
Visibility: 10 mile(s):0
Sky conditions: overcast
Temperature: 51.1 F (10.6 C)
Dew Point: 48.9 F (9.4 C)
Relative Humidity: 92%
Pressure (altimeter): 30.07 in. Hg (1018 hPa)
Pressure tendency: 0.01 inches (0.4 hPa) lower than three hours ago
ob: KNIP 260853Z 35005KT 10SM OVC035 11/09 A3007 RMK AO2 SLP177 T01060094 56004
cycle: 9

Station Type Date Time Source
KNIP TAF 2022/01/26 07:51 UTC NOAA

TAF KNIP 2607/2707 VRB05KT 9999 VCSH BKN040 OVC090 QNH3001INS
TEMPO 2607/2613 8000 -SHRA BKN015 OVC030
FM261300 01008KT 9999 VCSH BKN015 OVC025 QNH3008INS
TEMPO 2613/2618 8000 -SHRA
BECMG 2619/2621 02015G23KT 9999 NSW BKN015 OVC030 QNH3011INS T11/2608Z T15/2621Z FN00240

Example: see airport list